createdAt,value
2019-03-30T08:13:33.068Z,25.93
2019-03-30T08:16:03.396Z,26.63
2019-03-30T08:18:36.229Z,28.40
2019-03-30T08:23:56.170Z,27.63
2019-03-30T08:27:00.365Z,27.80
2019-03-30T08:32:25.149Z,28.67
2019-03-30T08:35:02.107Z,27.07
2019-03-30T08:38:01.734Z,28.80
2019-03-30T08:43:10.861Z,27.33
2019-03-30T08:45:44.873Z,27.00
2019-03-30T08:48:51.243Z,27.90
2019-03-30T08:51:13.006Z,26.27
2019-03-30T08:53:54.601Z,28.23
2019-03-30T08:56:54.091Z,27.27
2019-03-30T08:59:25.704Z,28.73
2019-03-30T09:16:58.826Z,28.33
2019-03-30T09:20:45.914Z,29.00
2019-03-30T09:22:30.713Z,28.73
2019-03-30T09:25:05.396Z,29.17
2019-03-30T09:27:34.894Z,30.80
2019-03-30T09:30:05.896Z,29.63
2019-03-30T09:32:45.118Z,29.17
2019-03-30T09:35:16.833Z,28.47
2019-03-30T09:37:51.343Z,30.10
2019-03-30T09:40:31.361Z,29.20
2019-03-30T09:43:29.442Z,30.83
2019-03-30T09:46:04.468Z,30.77
2019-03-30T09:48:35.873Z,31.03
2019-03-30T09:51:10.677Z,30.37
2019-03-30T09:53:46.051Z,30.17
2019-03-30T09:56:15.524Z,31.07
2019-03-30T09:58:55.237Z,30.67
2019-03-30T10:01:23.515Z,30.50
2019-03-30T10:07:16.291Z,29.67
2019-03-30T10:09:47.256Z,30.40
2019-03-30T10:12:17.718Z,30.87
2019-03-30T10:14:46.989Z,30.87
2019-03-30T10:17:16.039Z,31.77
2019-03-30T10:19:53.145Z,30.20
2019-03-30T10:22:15.884Z,29.63
2019-03-30T10:24:44.725Z,30.10
2019-03-30T10:27:13.593Z,31.93
2019-03-30T10:29:42.412Z,31.77
2019-03-30T10:32:11.324Z,31.90
2019-03-30T10:34:40.494Z,30.73
2019-03-30T10:37:09.537Z,30.73
2019-03-30T10:39:40.987Z,30.90
2019-03-30T10:42:10.387Z,30.73
2019-03-30T10:44:40.053Z,32.33
2019-03-30T10:47:08.998Z,32.50
2019-03-30T10:49:38.022Z,31.87
2019-03-30T10:52:13.335Z,32.00
2019-03-30T10:54:53.037Z,30.43
2019-03-30T11:00:37.203Z,30.53
2019-03-30T11:03:09.327Z,31.37
2019-03-30T11:05:38.592Z,31.80
2019-03-30T11:08:10.384Z,30.07
2019-03-30T11:10:39.620Z,28.93
2019-03-30T11:13:08.678Z,30.13
2019-03-30T11:15:37.772Z,28.23
2019-03-30T11:18:06.613Z,28.93
2019-03-30T11:20:35.410Z,30.53
2019-03-30T11:23:04.300Z,29.83
2019-03-30T11:25:36.182Z,28.90
2019-03-30T11:28:11.685Z,29.17
2019-03-30T11:30:41.220Z,33.67
2019-03-30T11:33:10.843Z,32.77
2019-03-30T11:35:40.131Z,35.10
2019-03-30T11:38:09.252Z,34.57
2019-03-30T11:40:38.519Z,35.17
2019-03-30T11:43:07.372Z,38.10
2019-03-30T11:45:36.449Z,39.47
2019-03-30T11:48:05.456Z,39.53
2019-03-30T11:50:34.729Z,40.20
2019-03-30T11:53:05.738Z,39.10
2019-03-30T11:55:37.696Z,39.50
2019-03-30T11:58:07.065Z,38.47
2019-03-30T12:04:30.494Z,36.50
2019-03-30T12:11:06.024Z,36.63
2019-03-30T12:43:38.769Z,28.00
2019-03-30T12:46:07.042Z,30.33
2019-03-30T12:48:37.735Z,27.70
2019-03-30T12:51:07.591Z,30.47
2019-03-30T12:53:49.667Z,33.47
2019-03-30T12:56:09.495Z,33.97
2019-03-30T12:58:39.439Z,36.53
2019-03-30T13:01:18.394Z,36.40
2019-03-30T13:03:51.560Z,38.63
2019-03-30T13:06:30.376Z,39.33
2019-03-30T13:09:00.196Z,39.67
2019-03-30T13:11:31.520Z,37.83
2019-03-30T13:14:01.045Z,38.60
2019-03-30T13:16:30.694Z,38.57
2019-03-30T13:19:00.140Z,42.07
2019-03-30T13:21:52.124Z,42.67
2019-03-30T13:24:10.984Z,42.17
2019-03-30T13:26:40.706Z,42.37
2019-03-30T13:29:35.428Z,45.20
2019-03-30T13:35:15.715Z,43.90
2019-03-30T13:38:20.953Z,45.97
2019-03-30T13:41:07.564Z,45.50
2019-03-30T13:44:20.999Z,60.33
2019-03-30T13:47:04.209Z,45.47
2019-03-30T13:50:38.913Z,44.83
2019-03-30T13:53:56.935Z,44.57
2019-03-30T14:03:37.367Z,41.33
2019-03-30T14:06:13.111Z,44.33
2019-03-30T14:08:43.199Z,43.37
2019-03-30T14:17:40.197Z,47.03
2019-03-30T14:20:15.934Z,47.67
2019-03-30T14:23:27.183Z,46.83
2019-03-30T14:26:31.283Z,47.87
2019-03-30T14:29:01.839Z,48.90
2019-03-30T14:31:37.471Z,48.53
2019-03-30T14:34:07.696Z,46.13
2019-03-30T14:36:40.482Z,44.17
2019-03-30T14:39:12.164Z,44.33
2019-03-30T14:41:41.943Z,44.53
2019-03-30T14:44:18.169Z,42.43
2019-03-30T14:46:55.606Z,43.87
2019-03-30T14:49:25.449Z,44.10
2019-03-30T14:51:54.918Z,42.90
2019-03-30T14:54:24.572Z,40.90
2019-03-30T14:56:54.008Z,42.43
2019-03-30T14:59:23.750Z,42.50
2019-03-30T15:01:53.142Z,44.57
2019-03-30T15:04:22.809Z,42.87
2019-03-30T15:06:52.269Z,42.10
2019-03-30T15:09:21.954Z,41.70
2019-03-30T15:11:51.269Z,40.10
2019-03-30T15:14:20.624Z,41.00
2019-03-30T15:16:50.518Z,41.37
2019-03-30T15:19:20.149Z,44.03
2019-03-30T15:21:50.943Z,36.17
2019-03-30T15:24:20.246Z,39.30
2019-03-30T15:26:59.986Z,36.70
2019-03-30T15:29:21.021Z,42.33
2019-03-30T15:31:50.682Z,42.60
2019-03-30T15:34:22.770Z,40.73
2019-03-30T15:36:52.260Z,39.03
2019-03-30T15:39:21.630Z,38.40
2019-03-30T15:41:51.646Z,35.93
2019-03-30T15:44:21.107Z,38.27
2019-03-30T15:46:50.479Z,33.80
2019-03-30T15:49:19.846Z,32.10
2019-03-30T15:51:49.361Z,30.53
2019-03-30T15:54:18.813Z,29.57
2019-03-30T15:56:48.492Z,29.40
2019-03-30T15:59:18.070Z,30.23
2019-03-30T16:01:47.579Z,32.40
2019-03-30T16:04:17.222Z,30.43
2019-03-30T16:06:46.755Z,31.93
2019-03-30T16:09:16.210Z,33.90
2019-03-30T16:11:45.759Z,33.07
2019-03-30T16:14:15.265Z,35.17
2019-03-30T16:16:44.967Z,35.73
2019-03-30T16:19:14.591Z,37.80
2019-03-30T16:21:44.415Z,38.17
2019-03-30T16:24:13.767Z,37.03
2019-03-30T16:26:49.758Z,37.63
2019-03-30T16:29:19.921Z,37.27
2019-03-30T16:31:50.137Z,37.70
2019-03-30T16:34:19.816Z,31.13
2019-03-30T16:36:49.454Z,32.50
2019-03-30T16:39:19.119Z,31.27
2019-03-30T16:41:48.644Z,31.73
2019-03-30T16:44:18.340Z,31.23
2019-03-30T16:46:47.898Z,32.43
2019-03-30T16:49:17.329Z,32.93
2019-03-30T16:51:47.047Z,32.57
2019-03-30T16:54:16.430Z,33.40
2019-03-30T16:56:45.898Z,33.30
2019-03-30T16:59:15.599Z,34.63
2019-03-30T17:01:45.068Z,34.97
2019-03-30T17:04:14.765Z,32.17
2019-03-30T17:06:44.262Z,32.17
2019-03-30T17:09:13.879Z,32.40
2019-03-30T17:11:46.461Z,33.23
2019-03-30T17:14:16.251Z,35.53
2019-03-30T17:16:45.744Z,32.83
2019-03-30T17:19:15.391Z,34.10
2019-03-30T17:21:45.000Z,33.47
2019-03-30T17:24:14.745Z,31.47
2019-03-30T17:26:45.197Z,31.10
2019-03-30T17:29:17.003Z,31.77
2019-03-30T17:31:49.747Z,32.33
2019-03-30T17:34:19.553Z,32.80
2019-03-30T17:36:49.041Z,32.07
2019-03-30T17:39:18.683Z,31.00
2019-03-30T17:41:48.227Z,30.77
2019-03-30T17:44:18.274Z,31.93
2019-03-30T17:46:48.189Z,31.10
2019-03-30T17:49:17.843Z,30.17
2019-03-30T17:51:47.426Z,30.53
2019-03-30T17:54:20.875Z,28.50
2019-03-30T17:56:50.517Z,30.97
2019-03-30T17:59:23.683Z,31.47
2019-03-30T18:01:52.656Z,30.33
2019-03-30T18:04:22.112Z,30.33
2019-03-30T18:06:53.630Z,31.00
2019-03-30T18:09:29.820Z,34.20
2019-03-30T18:12:00.599Z,32.37
2019-03-30T18:14:38.181Z,35.40
2019-03-30T18:17:11.201Z,36.00
2019-03-30T18:19:41.485Z,34.67
2019-03-30T18:22:11.914Z,39.40
2019-03-30T18:24:42.202Z,40.40
2019-03-30T18:27:12.126Z,39.60
2019-03-30T18:29:44.282Z,40.40
2019-03-30T18:32:17.124Z,41.07
2019-03-30T18:34:54.491Z,41.27
2019-03-30T18:37:50.866Z,41.43
2019-03-30T18:40:30.882Z,39.57
2019-03-30T18:43:00.781Z,39.23
2019-03-30T18:45:30.589Z,37.33
2019-03-30T18:48:24.999Z,36.57
2019-03-30T18:50:54.217Z,37.10
2019-03-30T18:53:23.721Z,34.77
2019-03-30T19:10:56.227Z,35.63
2019-03-30T19:14:43.136Z,35.03
2019-03-30T19:35:10.913Z,33.60
2019-03-30T19:37:53.467Z,33.10
2019-03-30T19:40:30.101Z,34.13
2019-03-30T19:43:02.816Z,34.10
2019-03-30T19:45:36.257Z,35.63
2019-03-30T19:48:09.200Z,35.47
2019-03-30T19:50:44.643Z,35.83
2019-03-30T19:53:17.835Z,34.60
2019-03-30T19:55:52.806Z,34.83
2019-03-30T19:58:25.968Z,34.57
2019-03-30T20:01:20.554Z,37.27
2019-03-30T20:03:49.994Z,37.00
2019-03-30T20:06:19.618Z,37.83
2019-03-30T20:08:51.830Z,38.20
2019-03-30T20:11:21.984Z,37.90
2019-03-30T20:13:52.117Z,37.60
2019-03-30T20:16:21.622Z,38.03
2019-03-30T20:18:51.214Z,39.90
2019-03-30T20:21:20.790Z,41.57
2019-03-30T20:23:50.303Z,40.53
2019-03-30T20:26:20.228Z,41.30
2019-03-30T20:28:49.929Z,42.73
2019-03-30T20:31:19.676Z,42.80
2019-03-30T20:33:49.213Z,42.07
2019-03-30T20:36:18.645Z,43.33
2019-03-30T20:38:48.113Z,42.30
2019-03-30T20:41:17.618Z,44.87
2019-03-30T20:43:48.316Z,43.20
2019-03-30T20:46:17.860Z,47.37
2019-03-30T20:48:47.802Z,46.50
2019-03-30T20:51:17.385Z,47.23
2019-03-30T20:53:47.268Z,48.90
2019-03-30T20:56:17.343Z,47.53
2019-03-30T20:58:50.406Z,49.47
2019-03-30T21:01:20.193Z,49.83
2019-03-30T21:03:49.782Z,48.20
2019-03-30T21:06:19.328Z,49.90
2019-03-30T21:08:49.002Z,49.20
2019-03-30T21:11:18.478Z,50.73
2019-03-30T21:13:48.115Z,49.50
2019-03-30T21:16:17.791Z,49.23
2019-03-30T21:18:47.521Z,50.40
2019-03-30T21:21:28.872Z,50.20
2019-03-30T21:24:13.057Z,50.50
2019-03-30T21:26:42.774Z,51.80
2019-03-30T21:29:12.541Z,48.90
2019-03-30T21:31:44.569Z,51.23
2019-03-30T21:34:23.255Z,51.37
2019-03-30T21:36:55.418Z,51.70
2019-03-30T21:39:28.537Z,52.30
2019-03-30T21:41:58.262Z,51.63
2019-03-30T21:44:30.715Z,50.73
2019-03-30T21:47:00.718Z,51.43
2019-03-30T21:49:31.061Z,51.63
2019-03-30T21:55:05.297Z,50.53
2019-03-30T21:58:32.984Z,54.13
2019-03-30T22:01:02.677Z,53.37
2019-03-30T22:03:32.590Z,54.33
2019-03-30T22:06:05.250Z,52.57
2019-03-30T22:08:35.062Z,53.00
2019-03-30T22:11:04.974Z,53.70
2019-03-30T22:13:34.834Z,54.70
2019-03-30T22:16:04.569Z,55.00
2019-03-30T22:18:34.594Z,52.57
2019-03-30T22:21:04.202Z,52.73
2019-03-30T22:23:36.819Z,56.13
2019-03-30T22:26:09.119Z,54.97
2019-03-30T22:28:39.419Z,54.53
2019-03-30T22:31:11.741Z,54.57
2019-03-30T22:33:41.468Z,54.47
2019-03-30T22:36:11.953Z,53.93
2019-03-30T22:38:41.952Z,55.70
2019-03-30T22:41:11.431Z,55.30
2019-03-30T22:43:41.498Z,54.23
2019-03-30T22:46:11.408Z,55.33
2019-03-30T22:48:41.455Z,55.17
2019-03-30T22:51:10.959Z,56.10
2019-03-30T22:53:43.822Z,56.33
2019-03-30T22:56:13.924Z,55.63
2019-03-30T22:58:44.192Z,60.73
2019-03-30T23:01:16.318Z,62.87
2019-03-30T23:03:48.979Z,63.57
2019-03-30T23:06:18.857Z,62.73
2019-03-30T23:08:49.040Z,62.63
2019-03-30T23:11:19.271Z,63.60
2019-03-30T23:13:49.171Z,63.37
2019-03-30T23:16:18.991Z,65.43
2019-03-30T23:18:48.828Z,63.07
2019-03-30T23:21:21.711Z,63.93
2019-03-30T23:23:59.376Z,67.67
2019-03-30T23:26:29.973Z,64.50
2019-03-30T23:29:03.159Z,66.27
2019-03-30T23:31:33.278Z,65.87
2019-03-30T23:34:12.521Z,68.33
2019-03-30T23:36:42.551Z,68.77
2019-03-30T23:39:12.366Z,68.53
2019-03-30T23:41:42.646Z,66.43
2019-03-30T23:44:13.093Z,68.37
2019-03-30T23:46:43.462Z,69.17
2019-03-30T23:49:13.718Z,70.33
2019-03-30T23:51:55.344Z,69.00
2019-03-30T23:54:28.398Z,69.33
2019-03-30T23:56:58.622Z,70.37
2019-03-30T23:59:31.603Z,68.70
